Time;durP1;ratioP1;P1;durP2;ratioP2;P2;SDS_P1;SDS_P2;PMS_P1;PMS_P2;Temp;Humidity;BMP_temperature;BMP_pressure;BME280_temperature;BME280_humidity;BME280_pressure;Samples;Min_cycle;Max_cycle;Signal;HPM_P1;HPM_P2
2022/03/13 00:02:16;;;;;;;1.92;0.85;;;7.60;94.40;;;;;;5097325;27;20049;-79
2022/03/13 00:04:44;;;;;;;0.73;0.40;;;7.60;94.40;;;;;;5111470;27;20105;-79
2022/03/13 00:07:16;;;;;;;1.63;0.75;;;7.50;94.30;;;;;;5116660;27;20114;-79
2022/03/13 00:09:44;;;;;;;2.60;0.88;;;7.50;94.30;;;;;;5109392;27;20038;-79
2022/03/13 00:12:14;;;;;;;2.25;1.00;;;7.50;94.40;;;;;;5122200;27;21066;-79
2022/03/13 00:14:42;;;;;;;3.83;0.93;;;7.50;94.60;;;;;;5094863;27;20504;-79
2022/03/13 00:17:11;;;;;;;1.52;0.57;;;7.50;94.50;;;;;;5098886;27;20121;-79
2022/03/13 00:19:36;;;;;;;4.47;1.30;;;7.50;94.60;;;;;;5117179;27;20080;-79
2022/03/13 00:22:04;;;;;;;1.13;0.85;;;7.50;94.50;;;;;;5119525;27;20127;-79
2022/03/13 00:24:31;;;;;;;2.13;1.25;;;7.50;94.40;;;;;;5134378;27;20041;-79
2022/03/13 00:26:56;;;;;;;0.85;0.73;;;7.50;94.60;;;;;;5109662;27;20384;-79
2022/03/13 00:29:22;;;;;;;3.42;1.33;;;7.40;94.30;;;;;;5115353;28;20032;-79
2022/03/13 00:31:48;;;;;;;3.30;1.77;;;7.40;94.50;;;;;;5093989;27;20022;-79
2022/03/13 00:34:14;;;;;;;2.58;0.82;;;7.40;94.40;;;;;;5123756;27;20035;-79
2022/03/13 00:36:40;;;;;;;7.18;1.90;;;7.40;94.80;;;;;;5091970;27;20609;-79
2022/03/13 00:39:06;;;;;;;1.88;1.40;;;7.40;94.50;;;;;;5139791;27;20066;-79
2022/03/13 00:41:32;;;;;;;1.25;0.47;;;7.40;94.80;;;;;;5118389;27;20161;-79
2022/03/13 00:43:57;;;;;;;1.75;0.82;;;7.40;94.90;;;;;;5114268;27;20053;-79
2022/03/13 00:46:23;;;;;;;1.55;0.77;;;7.40;94.90;;;;;;5113878;27;20033;-79
2022/03/13 00:48:49;;;;;;;2.45;1.52;;;7.40;94.90;;;;;;5112348;27;20530;-79
2022/03/13 00:51:15;;;;;;;3.45;0.77;;;7.40;94.80;;;;;;5110375;27;20587;-79
2022/03/13 00:53:41;;;;;;;1.88;0.95;;;7.40;94.90;;;;;;5128170;27;20069;-79
2022/03/13 00:56:07;;;;;;;3.20;1.02;;;7.40;94.60;;;;;;5103297;27;20456;-79
2022/03/13 00:58:32;;;;;;;1.48;0.55;;;7.40;94.60;;;;;;5114446;27;20059;-79
2022/03/13 01:00:59;;;;;;;3.78;0.90;;;7.40;94.80;;;;;;5122657;27;20055;-79
2022/03/13 01:03:47;;;;;;;2.17;0.77;;;7.40;94.80;;;;;;5101387;27;20039;-79
2022/03/13 01:06:13;;;;;;;1.92;0.93;;;7.40;95.10;;;;;;5103521;27;20118;-79
2022/03/13 01:08:40;;;;;;;3.20;1.20;;;7.40;94.90;;;;;;5119444;27;20122;-79
2022/03/13 01:11:06;;;;;;;2.47;1.02;;;7.30;94.90;;;;;;5119849;27;20050;-79
2022/03/13 01:13:32;;;;;;;1.45;0.85;;;7.40;95.00;;;;;;5120013;27;20442;-79
2022/03/13 01:16:19;;;;;;;2.58;1.00;;;7.40;94.80;;;;;;5155781;27;20031;-79
2022/03/13 01:18:58;;;;;;;2.85;0.90;;;7.40;95.60;;;;;;5118854;27;20102;-79
2022/03/13 01:21:24;;;;;;;2.63;1.33;;;7.40;95.30;;;;;;5115765;27;20515;-79
2022/03/13 01:24:05;;;;;;;3.65;1.00;;;7.40;95.10;;;;;;5107864;27;20099;-79
2022/03/13 01:26:34;;;;;;;0.88;0.70;;;7.40;95.60;;;;;;5123708;27;20046;-79
2022/03/13 01:29:01;;;;;;;1.27;0.75;;;7.40;95.40;;;;;;5109462;27;20210;-79
2022/03/13 01:31:32;;;;;;;3.30;1.08;;;7.40;95.30;;;;;;5099439;27;20505;-79
2022/03/13 01:33:58;;;;;;;3.35;1.42;;;7.40;95.30;;;;;;5082958;27;20036;-79
2022/03/13 01:36:24;;;;;;;0.82;0.77;;;7.30;95.40;;;;;;5097794;27;20114;-79
2022/03/13 01:38:58;;;;;;;1.58;1.05;;;7.30;95.50;;;;;;5121737;27;20511;-79
2022/03/13 01:41:26;;;;;;;1.95;1.00;;;7.30;96.00;;;;;;5125771;27;20659;-79
2022/03/13 01:43:52;;;;;;;1.70;0.80;;;7.30;95.90;;;;;;5092394;27;20031;-79
2022/03/13 01:46:18;;;;;;;3.15;1.58;;;7.30;96.10;;;;;;5098237;27;20450;-79
2022/03/13 01:49:03;;;;;;;1.42;0.88;;;7.30;96.00;;;;;;5122083;27;20026;-79
2022/03/13 01:51:31;;;;;;;0.77;0.68;;;7.30;96.30;;;;;;5105943;27;20114;-79
2022/03/13 01:54:02;;;;;;;2.40;0.90;;;7.30;96.10;;;;;;5115532;27;20063;-79
2022/03/13 01:56:30;;;;;;;1.48;1.02;;;7.30;96.20;;;;;;5095081;27;20077;-79
2022/03/13 01:58:56;;;;;;;2.75;0.77;;;7.30;96.20;;;;;;5105864;27;20050;-79
2022/03/13 02:01:25;;;;;;;2.33;0.77;;;7.30;96.40;;;;;;5100878;27;20038;-79
2022/03/13 02:03:50;;;;;;;0.35;0.35;;;7.30;96.40;;;;;;5116658;27;20488;-79
2022/03/13 02:06:17;;;;;;;1.38;0.73;;;7.40;96.60;;;;;;5121825;27;20053;-79
2022/03/13 02:08:47;;;;;;;3.38;0.93;;;7.30;96.40;;;;;;5129921;27;20122;-79
2022/03/13 02:11:19;;;;;;;1.95;1.20;;;7.40;96.30;;;;;;5093483;27;20088;-79
2022/03/13 02:13:51;;;;;;;4.65;1.10;;;7.40;96.40;;;;;;5081876;27;20537;-79
2022/03/13 02:16:18;;;;;;;4.88;1.77;;;7.30;96.80;;;;;;5103426;27;20546;-79
2022/03/13 02:18:49;;;;;;;1.17;0.70;;;7.40;96.80;;;;;;5087463;27;20127;-79
2022/03/13 02:21:19;;;;;;;3.42;1.30;;;7.40;96.70;;;;;;5088071;27;20047;-79
2022/03/13 02:23:45;;;;;;;3.47;1.17;;;7.40;97.00;;;;;;5082990;27;20084;-79
2022/03/13 02:26:11;;;;;;;0.82;0.50;;;7.40;96.80;;;;;;5094472;27;20047;-79
2022/03/13 02:28:42;;;;;;;1.25;0.50;;;7.40;96.70;;;;;;5093057;27;20464;-79
2022/03/13 02:31:19;;;;;;;1.58;0.50;;;7.40;96.70;;;;;;5097434;27;20165;-79
2022/03/13 02:33:44;;;;;;;1.35;0.65;;;7.50;96.90;;;;;;5093797;27;20046;-79
2022/03/13 02:36:28;;;;;;;1.05;0.40;;;7.50;96.80;;;;;;5118489;27;20039;-79
2022/03/13 02:38:54;;;;;;;0.68;0.40;;;7.50;97.00;;;;;;5110740;27;20819;-79
2022/03/13 02:41:20;;;;;;;2.25;0.75;;;7.50;96.70;;;;;;5123046;27;20050;-79
2022/03/13 02:43:45;;;;;;;2.80;0.80;;;7.50;97.00;;;;;;5106380;27;20031;-79
2022/03/13 02:46:23;;;;;;;1.77;0.82;;;7.50;96.80;;;;;;5118883;27;20133;-79
2022/03/13 02:48:50;;;;;;;1.02;0.43;;;7.50;96.90;;;;;;5092139;27;20078;-79
2022/03/13 02:51:16;;;;;;;1.25;0.43;;;7.50;96.40;;;;;;5109176;27;20081;-79
2022/03/13 02:53:43;;;;;;;3.33;0.95;;;7.50;96.40;;;;;;5123504;27;20144;-79
2022/03/13 02:56:09;;;;;;;1.75;0.95;;;7.50;96.60;;;;;;5108573;27;20511;-79
2022/03/13 02:58:35;;;;;;;1.25;0.60;;;7.50;96.90;;;;;;5124161;27;20078;-79
2022/03/13 03:01:01;;;;;;;2.08;1.27;;;7.50;96.90;;;;;;5095079;27;20102;-79
2022/03/13 03:03:27;;;;;;;0.75;0.50;;;7.50;97.10;;;;;;5117894;27;20125;-79
2022/03/13 03:05:53;;;;;;;1.75;0.68;;;7.50;96.80;;;;;;5115621;27;20118;-79
2022/03/13 03:08:19;;;;;;;1.23;0.80;;;7.50;97.00;;;;;;5111267;27;20571;-79
2022/03/13 03:10:45;;;;;;;0.98;0.32;;;7.40;96.90;;;;;;5119547;27;20027;-79
2022/03/13 03:13:13;;;;;;;3.05;1.17;;;7.40;97.00;;;;;;5099918;27;20038;-79
2022/03/13 03:15:39;;;;;;;1.48;0.60;;;7.40;96.90;;;;;;5096874;27;20075;-79
2022/03/13 03:18:06;;;;;;;3.78;0.90;;;7.40;96.80;;;;;;5121100;27;20179;-79
2022/03/13 03:20:34;;;;;;;1.70;1.10;;;7.40;96.90;;;;;;5125535;27;20065;-79
2022/03/13 03:23:00;;;;;;;0.98;0.60;;;7.30;97.10;;;;;;5127449;27;20062;-79
2022/03/13 03:25:27;;;;;;;3.28;1.45;;;7.30;97.20;;;;;;5096343;27;20039;-79
2022/03/13 03:27:54;;;;;;;2.85;1.27;;;7.30;97.10;;;;;;5112017;27;20042;-79
2022/03/13 03:30:25;;;;;;;0.57;0.52;;;7.30;97.40;;;;;;5101028;27;20060;-79
2022/03/13 03:32:52;;;;;;;1.27;0.73;;;7.30;97.50;;;;;;5096059;27;20046;-79
2022/03/13 03:35:24;;;;;;;0.52;0.50;;;7.30;97.50;;;;;;5107623;27;20080;-79
2022/03/13 03:37:53;;;;;;;2.65;0.75;;;7.30;97.80;;;;;;5109552;27;20531;-79
2022/03/13 03:40:27;;;;;;;1.77;1.08;;;7.30;97.90;;;;;;5123163;27;20539;-79
2022/03/13 03:43:04;;;;;;;1.42;0.90;;;7.30;98.00;;;;;;5109959;27;20084;-79
2022/03/13 03:45:31;;;;;;;0.95;0.57;;;7.20;97.90;;;;;;5113225;27;20050;-79
2022/03/13 03:47:57;;;;;;;1.73;0.73;;;7.20;97.70;;;;;;5109137;27;20027;-79
2022/03/13 03:50:23;;;;;;;1.35;0.70;;;7.10;97.30;;;;;;5108240;27;20026;-79
2022/03/13 03:52:56;;;;;;;0.68;0.32;;;7.10;97.30;;;;;;5093977;27;20059;-79
2022/03/13 03:55:23;;;;;;;0.45;0.35;;;7.00;97.50;;;;;;5108076;27;20055;-79
2022/03/13 03:57:48;;;;;;;2.00;0.40;;;7.00;97.90;;;;;;5116330;27;20134;-79
2022/03/13 04:00:15;;;;;;;3.10;0.60;;;6.90;98.00;;;;;;5109603;27;20118;-79
2022/03/13 04:02:41;;;;;;;1.38;1.08;;;6.90;97.80;;;;;;5111064;27;20035;-79
2022/03/13 04:05:08;;;;;;;1.20;0.47;;;6.90;98.20;;;;;;5114334;27;20039;-79
2022/03/13 04:07:34;;;;;;;3.63;2.03;;;6.80;98.30;;;;;;5120713;27;20039;-79
2022/03/13 04:09:59;;;;;;;3.03;1.15;;;6.80;98.10;;;;;;5080209;27;20046;-79
2022/03/13 04:12:28;;;;;;;0.65;0.60;;;6.80;97.90;;;;;;5104216;27;20395;-79
2022/03/13 04:14:54;;;;;;;2.53;1.27;;;6.80;97.90;;;;;;5105099;27;20058;-79
2022/03/13 04:17:20;;;;;;;0.45;0.38;;;6.80;98.10;;;;;;5109023;27;20058;-79
2022/03/13 04:19:46;;;;;;;1.95;0.95;;;6.70;98.10;;;;;;5111020;27;20121;-79
2022/03/13 04:22:12;;;;;;;2.45;1.38;;;6.70;97.90;;;;;;5109169;27;20127;-79
2022/03/13 04:24:37;;;;;;;2.17;0.85;;;6.70;98.30;;;;;;5119751;27;20031;-78
2022/03/13 04:27:03;;;;;;;1.92;1.02;;;6.70;98.40;;;;;;5098742;27;20513;-79
2022/03/13 04:29:30;;;;;;;1.20;0.68;;;6.70;98.30;;;;;;5100037;27;20059;-79
2022/03/13 04:31:57;;;;;;;2.08;1.13;;;6.70;98.20;;;;;;5098925;27;20480;-79
2022/03/13 04:34:23;;;;;;;2.97;1.35;;;6.70;98.30;;;;;;5124226;27;20031;-79
2022/03/13 04:36:49;;;;;;;0.68;0.68;;;6.60;97.80;;;;;;5115069;28;20095;-79
2022/03/13 04:39:15;;;;;;;2.03;1.17;;;6.60;97.80;;;;;;5091809;27;20099;-79
2022/03/13 04:41:42;;;;;;;1.05;0.68;;;6.50;98.30;;;;;;5119462;27;20091;-79
2022/03/13 04:44:11;;;;;;;5.07;1.30;;;6.50;98.60;;;;;;5110618;27;20538;-79
2022/03/13 04:46:36;;;;;;;1.33;0.93;;;6.50;98.40;;;;;;5118363;27;20039;-79
2022/03/13 04:49:02;;;;;;;1.92;1.48;;;6.50;97.90;;;;;;5123894;27;20035;-79
2022/03/13 04:51:28;;;;;;;1.23;1.08;;;6.50;97.80;;;;;;5093367;27;20031;-79
2022/03/13 04:53:53;;;;;;;1.85;0.50;;;6.50;98.10;;;;;;5111068;27;20051;-79
2022/03/13 04:56:19;;;;;;;0.88;0.60;;;6.40;98.00;;;;;;5123756;27;20046;-79
2022/03/13 04:58:44;;;;;;;2.60;1.38;;;6.40;98.20;;;;;;5096687;27;20129;-79
2022/03/13 05:01:11;;;;;;;1.45;0.73;;;6.40;97.80;;;;;;5095084;27;20065;-79
2022/03/13 05:03:36;;;;;;;2.00;1.27;;;6.40;97.80;;;;;;5114427;28;20084;-79
2022/03/13 05:06:06;;;;;;;3.72;1.42;;;6.30;97.60;;;;;;5097523;28;20027;-79
2022/03/13 05:08:33;;;;;;;2.30;0.80;;;6.20;97.60;;;;;;5102267;28;20036;-79
2022/03/13 05:10:59;;;;;;;1.63;0.82;;;6.30;97.60;;;;;;5092009;28;20027;-79
2022/03/13 05:13:26;;;;;;;8.70;0.98;;;6.20;97.60;;;;;;5117871;27;20039;-79
2022/03/13 05:15:54;;;;;;;0.75;0.57;;;6.20;97.70;;;;;;5113925;28;20099;-79
2022/03/13 05:18:20;;;;;;;0.40;0.40;;;6.20;97.60;;;;;;5116715;27;20043;-79
2022/03/13 05:20:46;;;;;;;2.55;0.70;;;6.20;97.60;;;;;;5118141;28;20521;-79
2022/03/13 05:23:12;;;;;;;1.25;0.43;;;6.20;97.60;;;;;;5088300;28;20080;-79
2022/03/13 05:25:39;;;;;;;2.00;1.05;;;6.10;97.40;;;;;;5121273;27;20035;-79
2022/03/13 05:28:09;;;;;;;0.22;0.20;;;6.20;97.50;;;;;;5099477;27;20073;-79
2022/03/13 05:30:36;;;;;;;1.15;0.95;;;6.10;97.40;;;;;;5130088;27;20030;-79
2022/03/13 05:33:03;;;;;;;1.17;0.75;;;6.10;97.50;;;;;;5113077;27;20067;-79
2022/03/13 05:35:29;;;;;;;1.88;0.77;;;6.10;97.30;;;;;;5093093;27;20057;-79
2022/03/13 05:37:55;;;;;;;0.80;0.60;;;6.10;97.10;;;;;;5094465;28;20035;-79
2022/03/13 05:40:22;;;;;;;1.98;0.82;;;6.10;96.90;;;;;;5103496;27;20031;-79
2022/03/13 05:42:50;;;;;;;0.82;0.65;;;6.10;97.10;;;;;;5090859;27;20572;-79
2022/03/13 05:45:19;;;;;;;5.00;1.10;;;6.10;97.20;;;;;;5108479;27;20038;-79
2022/03/13 05:47:47;;;;;;;1.95;0.80;;;6.10;96.90;;;;;;5085817;27;20038;-79
2022/03/13 05:50:13;;;;;;;3.10;1.15;;;6.10;97.10;;;;;;5090920;27;20035;-79
2022/03/13 05:52:41;;;;;;;1.85;0.80;;;6.10;97.20;;;;;;5089779;27;20147;-79
2022/03/13 05:55:07;;;;;;;0.85;0.30;;;6.10;96.80;;;;;;5100479;27;20078;-79
2022/03/13 05:57:34;;;;;;;4.25;1.17;;;6.10;97.00;;;;;;5107189;27;20488;-80
2022/03/13 06:00:00;;;;;;;0.93;0.57;;;6.10;96.80;;;;;;5093612;27;20067;-79
2022/03/13 06:02:26;;;;;;;0.10;0.10;;;6.10;96.70;;;;;;5120568;27;20070;-79
2022/03/13 06:04:52;;;;;;;2.65;1.25;;;6.10;96.90;;;;;;5113351;27;20387;-79
2022/03/13 06:07:18;;;;;;;2.90;1.20;;;6.10;96.90;;;;;;5104289;27;20035;-79
2022/03/13 06:09:44;;;;;;;0.38;0.38;;;6.10;96.90;;;;;;5113351;27;20491;-79
2022/03/13 06:12:10;;;;;;;2.92;1.65;;;6.10;96.90;;;;;;5119024;27;20039;-79
2022/03/13 06:14:36;;;;;;;1.98;1.05;;;6.10;96.60;;;;;;5118055;27;20482;-79
2022/03/13 06:17:02;;;;;;;0.60;0.40;;;6.10;96.30;;;;;;5103953;27;20034;-79
2022/03/13 06:19:27;;;;;;;1.65;0.75;;;6.10;96.40;;;;;;5115372;27;20088;-79
2022/03/13 06:21:53;;;;;;;1.92;1.10;;;6.10;95.90;;;;;;5106531;27;20055;-79
2022/03/13 06:24:19;;;;;;;0.30;0.30;;;6.10;95.90;;;;;;5112064;27;20383;-79
2022/03/13 06:26:45;;;;;;;0.63;0.43;;;6.10;95.90;;;;;;5125120;27;20050;-79
2022/03/13 06:29:13;;;;;;;0.40;0.40;;;6.10;95.80;;;;;;5107194;27;20035;-79
2022/03/13 06:31:39;;;;;;;2.55;1.15;;;6.10;96.10;;;;;;5114497;27;20095;-79
2022/03/13 06:34:04;;;;;;;2.00;0.70;;;6.10;96.30;;;;;;5108962;27;20038;-80
2022/03/13 06:36:30;;;;;;;1.80;0.80;;;6.10;96.20;;;;;;5117125;27;22272;-80
2022/03/13 06:38:56;;;;;;;2.28;1.00;;;6.10;95.80;;;;;;5097559;27;20038;-79
2022/03/13 06:41:22;;;;;;;2.92;1.00;;;6.10;95.80;;;;;;5094558;27;20042;-79
2022/03/13 06:43:48;;;;;;;1.65;1.00;;;6.10;95.60;;;;;;5119610;27;20031;-79
2022/03/13 06:46:13;;;;;;;1.35;0.77;;;6.10;94.90;;;;;;5112359;27;20031;-80
2022/03/13 06:48:39;;;;;;;1.25;1.08;;;6.10;94.80;;;;;;5104595;27;20042;-79
2022/03/13 06:51:06;;;;;;;1.38;0.80;;;6.20;94.80;;;;;;5125281;27;20853;-79
2022/03/13 06:53:34;;;;;;;0.17;0.17;;;6.20;94.30;;;;;;5107433;27;20069;-79
2022/03/13 06:56:00;;;;;;;0.25;0.20;;;6.20;94.60;;;;;;5117553;27;20529;-79
2022/03/13 06:58:25;;;;;;;0.63;0.50;;;6.20;94.80;;;;;;5121796;27;20038;-79
2022/03/13 07:00:52;;;;;;;2.35;0.50;;;6.20;94.80;;;;;;5118642;27;20083;-79
2022/03/13 07:03:17;;;;;;;0.28;0.10;;;6.20;94.40;;;;;;5115010;27;20453;-79
2022/03/13 07:05:43;;;;;;;1.10;0.73;;;6.20;94.60;;;;;;5101757;27;20031;-79
2022/03/13 07:08:08;;;;;;;2.25;1.13;;;6.30;94.40;;;;;;5113659;27;20035;-79
2022/03/13 07:10:34;;;;;;;1.17;0.57;;;6.30;94.40;;;;;;5111530;27;20487;-79
2022/03/13 07:13:00;;;;;;;1.20;0.90;;;6.20;94.40;;;;;;5110661;27;20027;-79
2022/03/13 07:15:31;;;;;;;1.58;0.93;;;6.30;94.40;;;;;;5110407;27;20373;-79
2022/03/13 07:17:57;;;;;;;0.30;0.22;;;6.30;94.20;;;;;;5093538;27;20043;-79
2022/03/13 07:20:23;;;;;;;1.58;0.73;;;6.30;94.50;;;;;;5093035;27;20069;-79
2022/03/13 07:22:49;;;;;;;0.80;0.65;;;6.30;94.50;;;;;;5110101;27;20523;-79
2022/03/13 07:25:15;;;;;;;1.05;0.70;;;6.40;94.80;;;;;;5094310;27;20035;-79
2022/03/13 07:27:43;;;;;;;0.55;0.43;;;6.40;94.80;;;;;;5084366;27;20037;-79
2022/03/13 07:30:14;;;;;;;1.52;0.68;;;6.40;94.80;;;;;;5096674;27;20484;-81
2022/03/13 07:32:41;;;;;;;0.93;0.82;;;6.40;94.80;;;;;;5114992;27;20050;-79
2022/03/13 07:35:08;;;;;;;0.95;0.55;;;6.50;95.00;;;;;;5108879;27;20407;-79
2022/03/13 07:37:33;;;;;;;0.57;0.50;;;6.50;95.20;;;;;;5111041;27;20059;-79
2022/03/13 07:40:00;;;;;;;1.35;0.73;;;6.50;95.10;;;;;;5111666;27;20070;-79
2022/03/13 07:42:26;;;;;;;1.25;0.70;;;6.60;94.80;;;;;;5119572;27;20118;-79
2022/03/13 07:44:51;;;;;;;0.43;0.35;;;6.60;94.20;;;;;;5106402;27;20471;-80
2022/03/13 07:47:17;;;;;;;1.27;1.17;;;6.70;94.20;;;;;;5091683;27;20031;-80
2022/03/13 07:49:43;;;;;;;2.20;0.60;;;6.70;94.30;;;;;;5094255;27;20074;-79
2022/03/13 07:52:09;;;;;;;1.02;0.68;;;6.80;94.20;;;;;;5092084;27;20502;-78
2022/03/13 07:54:35;;;;;;;2.03;0.70;;;6.80;93.50;;;;;;5094829;27;20445;-79
2022/03/13 07:57:01;;;;;;;1.02;0.82;;;6.90;93.90;;;;;;5110547;27;20039;-79
2022/03/13 07:59:27;;;;;;;1.60;0.70;;;6.90;93.60;;;;;;5102897;27;20039;-79
2022/03/13 08:01:53;;;;;;;1.58;0.88;;;7.00;93.30;;;;;;5093043;27;20045;-79
2022/03/13 08:04:19;;;;;;;2.42;1.00;;;7.00;92.70;;;;;;5108007;27;20369;-79
2022/03/13 08:06:44;;;;;;;0.45;0.38;;;7.10;92.80;;;;;;5109502;27;20453;-79
2022/03/13 08:09:10;;;;;;;1.27;0.77;;;7.10;92.90;;;;;;5090583;27;20035;-79
2022/03/13 08:11:38;;;;;;;4.20;1.33;;;7.10;92.30;;;;;;5092364;27;20039;-79
2022/03/13 08:14:05;;;;;;;1.70;0.77;;;7.20;92.40;;;;;;5088907;27;20053;-79
2022/03/13 08:16:31;;;;;;;4.57;1.00;;;7.20;92.00;;;;;;5110171;27;20046;-79
2022/03/13 08:18:57;;;;;;;1.17;0.95;;;7.20;91.90;;;;;;5092401;27;20039;-79
2022/03/13 08:21:22;;;;;;;1.05;0.50;;;7.20;91.70;;;;;;5106755;27;20107;-79
2022/03/13 08:23:48;;;;;;;0.85;0.40;;;7.30;92.00;;;;;;5083288;28;20550;-79
2022/03/13 08:26:13;;;;;;;2.33;1.00;;;7.30;91.70;;;;;;5079532;28;20123;-79
2022/03/13 08:28:43;;;;;;;2.97;0.50;;;7.30;91.70;;;;;;5093047;28;20077;-79
2022/03/13 08:31:09;;;;;;;3.28;1.10;;;7.30;91.50;;;;;;5094447;28;20042;-79
2022/03/13 08:33:34;;;;;;;2.45;1.65;;;7.40;91.60;;;;;;5109219;27;20031;-79
2022/03/13 08:36:00;;;;;;;2.63;0.65;;;7.40;91.20;;;;;;5087293;27;20051;-79
2022/03/13 08:38:26;;;;;;;1.75;0.98;;;7.40;91.40;;;;;;5089533;27;20067;-80
2022/03/13 08:40:52;;;;;;;1.13;0.90;;;7.40;91.30;;;;;;5110067;28;21136;-80
2022/03/13 08:43:18;;;;;;;1.00;0.45;;;7.50;91.20;;;;;;5110133;28;20042;-82
2022/03/13 08:45:44;;;;;;;1.75;0.70;;;7.50;91.20;;;;;;5110020;28;20039;-80
2022/03/13 08:48:09;;;;;;;0.63;0.63;;;7.60;91.20;;;;;;5105761;28;20042;-78
2022/03/13 08:50:35;;;;;;;1.13;0.57;;;7.60;90.70;;;;;;5092770;27;20027;-80
2022/03/13 08:53:01;;;;;;;1.75;0.90;;;7.70;88.50;;;;;;5091071;27;20034;-81
2022/03/13 08:55:27;;;;;;;1.58;0.47;;;7.70;89.70;;;;;;5105515;27;20564;-80
2022/03/13 08:57:53;;;;;;;3.50;1.27;;;7.80;88.60;;;;;;5095827;28;20552;-79
2022/03/13 09:00:21;;;;;;;1.73;0.93;;;7.80;88.60;;;;;;5096156;27;20334;-79
2022/03/13 09:02:47;;;;;;;2.33;1.10;;;7.90;85.50;;;;;;5102844;27;20119;-79
2022/03/13 09:05:13;;;;;;;1.73;0.95;;;8.00;85.30;;;;;;5096669;27;20031;-79
2022/03/13 09:07:39;;;;;;;3.33;0.85;;;8.00;85.50;;;;;;5112208;27;20122;-79
2022/03/13 09:10:07;;;;;;;2.08;0.93;;;8.10;85.30;;;;;;5113728;27;20150;-75
2022/03/13 09:12:33;;;;;;;1.77;0.70;;;8.10;84.30;;;;;;5096491;27;20040;-79
2022/03/13 09:15:00;;;;;;;2.38;1.13;;;8.20;84.40;;;;;;5129276;27;20047;-79
2022/03/13 09:17:25;;;;;;;3.05;1.23;;;8.20;84.00;;;;;;5115007;27;20401;-80
2022/03/13 09:19:51;;;;;;;0.63;0.40;;;8.30;81.70;;;;;;5113192;27;20039;-80
2022/03/13 09:22:18;;;;;;;1.85;0.95;;;8.30;81.20;;;;;;5093653;27;20035;-80
2022/03/13 09:24:48;;;;;;;0.85;0.70;;;8.30;81.80;;;;;;5111615;27;20755;-79
2022/03/13 09:27:13;;;;;;;6.55;1.17;;;8.40;81.80;;;;;;5108324;27;20035;-79
2022/03/13 09:29:39;;;;;;;1.15;0.80;;;8.40;81.70;;;;;;5112099;27;20050;-80
2022/03/13 09:32:05;;;;;;;2.55;0.50;;;8.50;80.90;;;;;;5095517;27;20411;-79
2022/03/13 09:34:31;;;;;;;2.83;1.02;;;8.50;80.70;;;;;;5099283;27;20043;-80
2022/03/13 09:36:58;;;;;;;3.05;1.05;;;8.50;80.10;;;;;;5093017;27;20035;-79
2022/03/13 09:39:25;;;;;;;1.40;0.55;;;8.60;80.90;;;;;;5097340;27;20283;-79
2022/03/13 09:41:52;;;;;;;1.25;0.80;;;8.70;80.20;;;;;;5093219;27;20046;-80
2022/03/13 09:44:19;;;;;;;0.93;0.63;;;8.70;79.70;;;;;;5105909;27;20063;-80
2022/03/13 09:46:46;;;;;;;0.40;0.28;;;8.80;79.50;;;;;;5090316;27;20037;-80
2022/03/13 09:49:11;;;;;;;1.20;0.57;;;8.80;79.70;;;;;;5086849;27;20039;-81
2022/03/13 09:51:38;;;;;;;1.50;0.88;;;8.90;78.90;;;;;;5115403;27;20046;-79
2022/03/13 09:54:05;;;;;;;2.45;0.32;;;9.00;78.40;;;;;;5097011;27;20110;-79
2022/03/13 09:56:34;;;;;;;2.72;0.77;;;9.00;77.50;;;;;;5103078;27;21620;-79
2022/03/13 09:58:59;;;;;;;1.70;0.77;;;9.10;76.70;;;;;;5101904;27;20038;-79
2022/03/13 10:01:25;;;;;;;2.05;1.10;;;9.10;76.60;;;;;;5096175;27;20050;-79
2022/03/13 10:03:51;;;;;;;3.03;1.00;;;9.10;76.50;;;;;;5115106;27;20143;-79
2022/03/13 10:06:16;;;;;;;1.98;0.52;;;9.20;77.00;;;;;;5109918;27;20072;-79
2022/03/13 10:08:42;;;;;;;0.70;0.40;;;9.30;77.40;;;;;;5127475;27;20080;-79
2022/03/13 10:11:08;;;;;;;2.40;1.15;;;9.30;77.30;;;;;;5124131;27;20040;-79
2022/03/13 10:13:42;;;;;;;3.58;0.70;;;9.30;77.10;;;;;;5116819;27;20043;-78
2022/03/13 10:16:17;;;;;;;1.17;0.47;;;9.30;73.70;;;;;;5097383;27;20042;-80
2022/03/13 10:18:43;;;;;;;0.85;0.43;;;9.40;75.10;;;;;;5109711;27;20043;-80
2022/03/13 10:21:11;;;;;;;2.17;0.98;;;9.40;75.00;;;;;;5099381;27;20514;-80
2022/03/13 10:23:38;;;;;;;1.33;0.63;;;9.50;76.40;;;;;;5099730;27;20043;-80
2022/03/13 10:26:05;;;;;;;2.95;1.13;;;9.50;76.20;;;;;;5115917;27;20038;-80
2022/03/13 10:28:36;;;;;;;3.22;1.13;;;9.60;76.00;;;;;;5110172;27;20039;-79
2022/03/13 10:31:01;;;;;;;0.75;0.45;;;9.70;74.20;;;;;;5110133;27;20418;-78
2022/03/13 10:33:47;;;;;;;3.58;1.02;;;9.70;76.10;;;;;;5098060;27;20053;-80
2022/03/13 10:36:14;;;;;;;2.55;0.60;;;9.80;74.30;;;;;;5112835;27;20399;-80
2022/03/13 10:38:41;;;;;;;1.88;0.70;;;9.90;73.90;;;;;;5128540;27;20364;-79
2022/03/13 10:41:08;;;;;;;0.90;0.45;;;9.90;73.90;;;;;;5118699;27;20039;-80
2022/03/13 10:43:40;;;;;;;3.47;0.82;;;10.00;73.90;;;;;;5120305;27;20531;-80
2022/03/13 10:46:06;;;;;;;3.03;0.90;;;10.00;73.70;;;;;;5108261;27;20035;-80
2022/03/13 10:48:36;;;;;;;3.17;0.80;;;10.00;73.80;;;;;;5097697;27;20080;-80
2022/03/13 10:51:14;;;;;;;1.33;0.80;;;10.00;73.00;;;;;;5120772;27;20492;-80
2022/03/13 10:53:39;;;;;;;3.10;1.50;;;10.10;74.30;;;;;;5101769;27;20066;-78
2022/03/13 10:56:08;;;;;;;1.05;0.50;;;10.10;75.00;;;;;;5115022;27;20531;-80
2022/03/13 10:58:39;;;;;;;3.90;1.92;;;10.10;75.20;;;;;;5119874;27;20051;-78
2022/03/13 11:01:16;;;;;;;2.60;0.80;;;10.10;74.40;;;;;;5108387;27;20042;-78
2022/03/13 11:03:51;;;;;;;5.03;1.13;;;10.10;74.40;;;;;;5113671;27;20035;-77
2022/03/13 11:06:17;;;;;;;0.73;0.55;;;10.20;74.70;;;;;;5119640;27;20031;-78
2022/03/13 11:08:43;;;;;;;1.85;0.95;;;10.30;73.80;;;;;;5123062;27;20039;-76
2022/03/13 11:11:18;;;;;;;1.67;0.65;;;10.30;73.50;;;;;;5117036;27;20031;-76
2022/03/13 11:13:55;;;;;;;;;;;10.40;74.00;;;;;;5101235;27;20038;-76
2022/03/13 11:16:28;;;;;;;1.13;0.73;;;10.40;67.80;;;;;;5108001;27;19919;-76
2022/03/13 11:19:08;;;;;;;1.45;0.68;;;10.50;71.30;;;;;;5113570;27;20043;-78
2022/03/13 11:21:34;;;;;;;2.55;0.70;;;10.60;73.00;;;;;;5099686;27;20072;-76
2022/03/13 11:24:00;;;;;;;2.50;0.80;;;10.70;73.50;;;;;;5096529;27;20042;-79
2022/03/13 11:26:30;;;;;;;9.95;1.48;;;10.70;72.90;;;;;;5120477;27;20129;-77
2022/03/13 11:28:57;;;;;;;5.15;1.48;;;10.80;73.90;;;;;;5121535;27;20042;-79
2022/03/13 11:31:29;;;;;;;2.28;0.60;;;10.80;74.00;;;;;;5124009;27;20035;-77
2022/03/13 11:34:18;;;;;;;1.80;0.88;;;10.80;74.30;;;;;;5118574;27;20256;-77
2022/03/13 11:36:47;;;;;;;1.98;0.90;;;10.80;72.60;;;;;;5113918;27;20053;-77
2022/03/13 11:39:34;;;;;;;4.55;0.80;;;10.80;73.40;;;;;;5099023;27;20045;-78
2022/03/13 11:42:01;;;;;;;0.80;0.55;;;10.90;72.30;;;;;;5096889;27;20041;-79
2022/03/13 11:44:35;;;;;;;3.25;1.55;;;11.00;71.20;;;;;;5110098;27;20031;-79
2022/03/13 11:47:18;;;;;;;1.50;0.65;;;11.00;72.60;;;;;;5103838;27;20039;-78
2022/03/13 11:49:43;;;;;;;2.75;0.75;;;11.10;72.20;;;;;;5109097;27;20089;-78
2022/03/13 11:52:16;;;;;;;2.53;1.63;;;11.20;72.00;;;;;;5095516;27;20561;-78
2022/03/13 11:54:55;;;;;;;1.13;0.63;;;11.20;71.40;;;;;;5108775;27;20059;-80
2022/03/13 11:57:22;;;;;;;2.25;1.23;;;11.20;71.70;;;;;;5119726;27;20096;-74
2022/03/13 12:00:10;;;;;;;1.48;0.90;;;11.20;70.30;;;;;;5111562;27;20118;-78
2022/03/13 12:02:41;;;;;;;3.53;1.00;;;11.30;69.40;;;;;;5104209;27;20484;-78
2022/03/13 12:05:25;;;;;;;3.00;0.93;;;11.30;69.60;;;;;;5124045;27;20039;-78
2022/03/13 12:08:04;;;;;;;2.47;1.23;;;11.40;68.90;;;;;;5108634;27;20456;-78
2022/03/13 12:10:31;;;;;;;0.90;0.68;;;11.40;69.60;;;;;;5087465;27;20043;-78
2022/03/13 12:13:04;;;;;;;2.22;1.00;;;11.40;69.80;;;;;;5092149;27;20085;-77
2022/03/13 12:15:30;;;;;;;2.20;1.30;;;11.40;69.70;;;;;;5106384;27;20492;-77
2022/03/13 12:17:57;;;;;;;3.30;1.00;;;11.40;68.90;;;;;;5089820;27;20035;-78
2022/03/13 12:20:32;;;;;;;1.75;0.88;;;11.50;68.30;;;;;;5105123;28;20046;-77
2022/03/13 12:22:59;;;;;;;1.35;0.90;;;11.50;69.30;;;;;;5089907;27;20035;-77
2022/03/13 12:25:26;;;;;;;1.30;0.70;;;11.50;68.50;;;;;;5088742;27;20032;-78
2022/03/13 12:27:55;;;;;;;2.10;0.90;;;11.50;68.90;;;;;;5087507;28;20035;-77
2022/03/13 12:30:29;;;;;;;3.60;1.13;;;11.50;68.40;;;;;;5087383;28;20036;-78
2022/03/13 12:33:05;;;;;;;2.38;1.02;;;11.60;68.20;;;;;;5090597;28;20172;-81
2022/03/13 12:35:32;;;;;;;1.70;1.08;;;11.60;67.20;;;;;;5089700;27;20035;-78
2022/03/13 12:38:02;;;;;;;1.40;1.05;;;11.60;67.60;;;;;;5095469;27;20031;-78
2022/03/13 12:40:30;;;;;;;1.52;0.45;;;11.70;68.30;;;;;;5096883;27;20027;-78
2022/03/13 12:43:00;;;;;;;2.38;1.00;;;11.70;67.60;;;;;;5115235;27;20436;-78
2022/03/13 12:45:26;;;;;;;2.15;1.00;;;11.70;67.50;;;;;;5092428;27;20046;-78
2022/03/13 12:47:55;;;;;;;2.10;0.70;;;11.70;67.10;;;;;;5096468;27;20027;-78
2022/03/13 12:50:26;;;;;;;2.30;1.00;;;11.70;67.60;;;;;;5115383;27;20027;-78
2022/03/13 12:53:00;;;;;;;1.83;1.00;;;11.80;67.70;;;;;;5091457;27;20278;-78
2022/03/13 12:55:27;;;;;;;2.25;0.85;;;11.80;67.40;;;;;;5115387;27;20099;-78
2022/03/13 12:57:55;;;;;;;4.32;1.70;;;11.80;67.00;;;;;;5113402;27;20078;-78
2022/03/13 13:00:32;;;;;;;2.38;1.08;;;11.80;67.30;;;;;;5113540;27;20400;-78